createdAt,value
2016-11-29T00:00:48.028Z,1030.13
2016-11-29T00:01:59.002Z,1030.13
2016-11-29T00:03:09.988Z,1030.13
2016-11-29T00:04:21.017Z,1030.13
2016-11-29T00:05:31.998Z,1030.11
2016-11-29T00:06:42.987Z,1030.08
2016-11-29T00:07:53.970Z,1030.1
2016-11-29T00:09:04.954Z,1030.09
2016-11-29T00:10:15.990Z,1030.1
2016-11-29T00:11:26.967Z,1030.04
2016-11-29T00:12:37.945Z,1030.08
2016-11-29T00:13:48.945Z,1030.03
2016-11-29T00:14:59.928Z,1030.05
2016-11-29T00:16:11.361Z,1030.02
2016-11-29T00:17:22.338Z,1030.03
2016-11-29T00:18:33.328Z,1030.04
2016-11-29T00:19:44.536Z,1030.05
2016-11-29T00:20:55.713Z,1029.99
2016-11-29T00:22:06.743Z,1029.99
2016-11-29T00:23:17.937Z,1029.99
2016-11-29T00:24:28.920Z,1029.97
2016-11-29T00:25:39.901Z,1030.02
2016-11-29T00:26:50.882Z,1030.04
2016-11-29T00:28:02.118Z,1030.05
2016-11-29T00:29:13.132Z,1030.05
2016-11-29T00:30:24.108Z,1030.04
2016-11-29T00:31:35.284Z,1030.1
2016-11-29T00:32:46.257Z,1030.07
2016-11-29T00:33:57.493Z,1030.12
2016-11-29T00:35:08.490Z,1030.13
2016-11-29T00:36:19.469Z,1030.09
2016-11-29T00:37:30.454Z,1030.12
2016-11-29T00:38:41.436Z,1030.11
2016-11-29T00:39:52.466Z,1030.1
2016-11-29T00:41:03.640Z,1030.13
2016-11-29T00:42:15.023Z,1030.17
2016-11-29T00:43:26.207Z,1030.18
2016-11-29T00:44:37.189Z,1030.16
2016-11-29T00:45:48.225Z,1030.18
2016-11-29T00:46:59.217Z,1030.21
2016-11-29T00:48:10.196Z,1030.19
2016-11-29T00:49:21.179Z,1030.25
2016-11-29T00:50:32.365Z,1030.21
2016-11-29T00:51:43.397Z,1030.18
2016-11-29T00:52:54.385Z,1030.17
2016-11-29T00:54:05.362Z,1030.16
2016-11-29T00:55:16.344Z,1030.16
2016-11-29T00:56:27.348Z,1030.17
2016-11-29T00:57:38.410Z,1030.17
2016-11-29T00:58:49.393Z,1030.16
2016-11-29T01:00:00.370Z,1030.18
2016-11-29T01:01:11.359Z,1030.16
2016-11-29T01:02:22.337Z,1030.12
2016-11-29T01:03:33.365Z,1030.14
2016-11-29T01:04:44.352Z,1030.14
2016-11-29T01:05:55.333Z,1030.13
2016-11-29T01:07:06.324Z,1030.18
2016-11-29T01:08:17.310Z,1030.14
2016-11-29T01:09:28.340Z,1030.21
2016-11-29T01:10:39.328Z,1030.17
2016-11-29T01:11:50.305Z,1030.19
2016-11-29T01:13:01.285Z,1030.19
2016-11-29T01:14:12.267Z,1030.2
2016-11-29T01:15:23.290Z,1030.19
2016-11-29T01:16:34.265Z,1030.23
2016-11-29T01:17:45.254Z,1030.25
2016-11-29T01:18:56.435Z,1030.23
2016-11-29T01:20:07.622Z,1030.25
2016-11-29T01:21:18.649Z,1030.21
2016-11-29T01:22:29.624Z,1030.22
2016-11-29T01:23:40.804Z,1030.24
2016-11-29T01:24:51.777Z,1030.3
2016-11-29T01:26:02.763Z,1030.3
2016-11-29T01:27:13.987Z,1030.31
2016-11-29T01:28:24.975Z,1030.29
2016-11-29T01:29:35.959Z,1030.21
2016-11-29T01:30:46.937Z,1030.21
2016-11-29T01:31:57.916Z,1030.21
2016-11-29T01:33:09.157Z,1030.22
2016-11-29T01:34:20.143Z,1030.19
2016-11-29T01:35:31.128Z,1030.16
2016-11-29T01:36:42.118Z,1030.18
2016-11-29T01:37:53.097Z,1030.18
2016-11-29T01:39:04.127Z,1030.16
2016-11-29T01:40:15.314Z,1030.17
2016-11-29T01:41:26.330Z,1030.16
2016-11-29T01:42:37.309Z,1030.19
2016-11-29T01:43:48.286Z,1030.19
2016-11-29T01:44:59.324Z,1030.22
2016-11-29T01:46:10.495Z,1030.18
2016-11-29T01:47:21.476Z,1030.21
2016-11-29T01:48:32.467Z,1030.17
2016-11-29T01:49:43.449Z,1030.18
2016-11-29T01:50:54.474Z,1030.15
2016-11-29T01:52:05.454Z,1030.15
2016-11-29T01:53:16.434Z,1030.14
2016-11-29T01:54:27.406Z,1030.11
2016-11-29T01:55:38.412Z,1030.14
2016-11-29T01:56:49.435Z,1030.12
2016-11-29T01:58:00.407Z,1030.14
2016-11-29T01:59:11.588Z,1030.14
2016-11-29T02:00:22.769Z,1030.13
2016-11-29T02:01:33.755Z,1030.1
2016-11-29T02:02:44.784Z,1030.07
2016-11-29T02:03:55.767Z,1030.06
2016-11-29T02:05:06.777Z,1030.02
2016-11-29T02:06:17.768Z,1030.08
2016-11-29T02:07:28.752Z,1030.05
2016-11-29T02:08:40.016Z,1030.06
2016-11-29T02:09:50.992Z,1030.03
2016-11-29T02:11:02.009Z,1030.06
2016-11-29T02:12:12.988Z,1030.03
2016-11-29T02:13:24.169Z,1030.04
2016-11-29T02:14:35.208Z,1030
2016-11-29T02:15:46.389Z,1030.03
2016-11-29T02:16:57.372Z,1030.03
2016-11-29T02:18:08.363Z,1029.99
2016-11-29T02:19:19.347Z,1029.99
2016-11-29T02:20:30.383Z,1030.01
2016-11-29T02:21:41.367Z,1029.97
2016-11-29T02:22:52.549Z,1029.98
2016-11-29T02:24:03.530Z,1029.97
2016-11-29T02:25:14.510Z,1029.98
2016-11-29T02:26:25.539Z,1029.97
2016-11-29T02:27:36.514Z,1030.01
2016-11-29T02:28:47.692Z,1029.96
2016-11-29T02:29:58.671Z,1030.01
2016-11-29T02:31:09.684Z,1029.99
2016-11-29T02:32:20.910Z,1029.94
2016-11-29T02:33:31.888Z,1029.96
2016-11-29T02:34:42.875Z,1029.97
2016-11-29T02:35:53.863Z,1029.96
2016-11-29T02:37:04.842Z,1029.95
2016-11-29T02:38:15.875Z,1029.97
2016-11-29T02:39:27.055Z,1029.99
2016-11-29T02:40:38.042Z,1029.91
2016-11-29T02:41:49.436Z,1029.95
2016-11-29T02:43:00.437Z,1029.9
2016-11-29T02:44:11.474Z,1029.88
2016-11-29T02:45:22.677Z,1029.83
2016-11-29T02:46:33.657Z,1029.82
2016-11-29T02:47:44.633Z,1029.86
2016-11-29T02:48:55.818Z,1029.83
2016-11-29T02:50:06.849Z,1029.85
2016-11-29T02:51:17.836Z,1029.85
2016-11-29T02:52:28.812Z,1029.83
2016-11-29T02:53:39.794Z,1029.83
2016-11-29T02:54:50.777Z,1029.82
2016-11-29T02:56:01.810Z,1029.9
2016-11-29T02:57:12.786Z,1029.91
2016-11-29T02:58:23.757Z,1029.82
2016-11-29T02:59:34.743Z,1029.88
2016-11-29T03:00:45.739Z,1029.82
2016-11-29T03:01:56.766Z,1029.86
2016-11-29T03:03:07.750Z,1029.89
2016-11-29T03:04:18.739Z,1029.88
2016-11-29T03:05:29.724Z,1029.92
2016-11-29T03:06:40.710Z,1029.93
2016-11-29T03:07:51.740Z,1029.94
2016-11-29T03:09:02.720Z,1029.91
2016-11-29T03:10:13.704Z,1029.91
2016-11-29T03:11:24.682Z,1029.94
2016-11-29T03:12:35.670Z,1029.94
2016-11-29T03:13:46.706Z,1029.93
2016-11-29T03:14:57.887Z,1029.91
2016-11-29T03:16:08.870Z,1029.93
2016-11-29T03:17:20.051Z,1029.89
2016-11-29T03:18:31.062Z,1029.9
2016-11-29T03:19:42.092Z,1029.92
2016-11-29T03:20:53.074Z,1029.97
2016-11-29T03:22:04.054Z,1029.9
2016-11-29T03:23:15.031Z,1029.95
2016-11-29T03:24:26.009Z,1029.92
2016-11-29T03:25:37.051Z,1029.93
2016-11-29T03:26:48.037Z,1029.94
2016-11-29T03:27:59.050Z,1029.94
2016-11-29T03:29:10.027Z,1029.98
2016-11-29T03:30:21.013Z,1029.92
2016-11-29T03:31:32.053Z,1029.92
2016-11-29T03:32:43.060Z,1029.95
2016-11-29T03:33:54.039Z,1029.92
2016-11-29T03:35:05.028Z,1029.89
2016-11-29T03:36:16.040Z,1029.84
2016-11-29T03:37:27.276Z,1029.86
2016-11-29T03:38:38.452Z,1029.86
2016-11-29T03:39:49.431Z,1029.88
2016-11-29T03:41:00.405Z,1029.9
2016-11-29T03:42:11.382Z,1029.9
2016-11-29T03:43:22.413Z,1029.9
2016-11-29T03:44:33.406Z,1029.89
2016-11-29T03:45:44.791Z,1029.89
2016-11-29T03:46:55.769Z,1029.85
2016-11-29T03:48:06.772Z,1029.83
2016-11-29T03:49:17.800Z,1029.81
2016-11-29T03:50:28.792Z,1029.82
2016-11-29T03:51:39.758Z,1029.85
2016-11-29T03:52:50.738Z,1029.83
2016-11-29T03:54:01.725Z,1029.8
2016-11-29T03:55:12.753Z,1029.8
2016-11-29T03:56:23.726Z,1029.73
2016-11-29T03:57:34.706Z,1029.79
2016-11-29T03:58:45.683Z,1029.81
2016-11-29T03:59:56.863Z,1029.82
2016-11-29T04:01:07.899Z,1029.84
2016-11-29T04:02:18.880Z,1029.85
2016-11-29T04:03:29.866Z,1029.81
2016-11-29T04:04:40.859Z,1029.84
2016-11-29T04:05:51.854Z,1029.81
2016-11-29T04:07:02.881Z,1029.84
2016-11-29T04:08:13.862Z,1029.83
2016-11-29T04:09:25.051Z,1029.85
2016-11-29T04:10:36.028Z,1029.8
2016-11-29T04:11:47.006Z,1029.85
2016-11-29T04:12:58.242Z,1029.82
2016-11-29T04:14:09.210Z,1029.75
2016-11-29T04:15:20.190Z,1029.81
2016-11-29T04:16:31.164Z,1029.78
2016-11-29T04:17:42.146Z,1029.8
2016-11-29T04:18:53.172Z,1029.76
2016-11-29T04:20:04.151Z,1029.78
2016-11-29T04:21:15.332Z,1029.76
2016-11-29T04:22:26.310Z,1029.75
2016-11-29T04:23:37.289Z,1029.75
2016-11-29T04:24:48.343Z,1029.68
2016-11-29T04:25:59.330Z,1029.74
2016-11-29T04:27:10.309Z,1029.78
2016-11-29T04:28:21.295Z,1029.78
2016-11-29T04:29:32.476Z,1029.75
2016-11-29T04:30:43.507Z,1029.79
2016-11-29T04:31:54.483Z,1029.83
2016-11-29T04:33:05.459Z,1029.79
2016-11-29T04:34:16.440Z,1029.86
2016-11-29T04:35:27.413Z,1029.88
2016-11-29T04:36:38.641Z,1029.87
2016-11-29T04:37:49.618Z,1029.85
2016-11-29T04:39:00.601Z,1029.89
2016-11-29T04:40:11.599Z,1029.9
2016-11-29T04:41:22.776Z,1029.88
2016-11-29T04:42:33.825Z,1029.89
2016-11-29T04:43:45.006Z,1029.89
2016-11-29T04:44:55.990Z,1029.88
2016-11-29T04:46:06.975Z,1029.91
2016-11-29T04:47:17.956Z,1029.88
2016-11-29T04:48:28.978Z,1029.92
2016-11-29T04:49:39.976Z,1029.93
2016-11-29T04:50:50.954Z,1029.93
2016-11-29T04:52:01.959Z,1029.95
2016-11-29T04:53:13.175Z,1029.95
2016-11-29T04:54:24.209Z,1029.93
2016-11-29T04:55:35.194Z,1029.93
2016-11-29T04:56:46.177Z,1029.94
2016-11-29T04:57:57.153Z,1029.9
2016-11-29T04:59:08.132Z,1029.95
2016-11-29T05:00:19.172Z,1029.91
2016-11-29T05:01:30.184Z,1029.9
2016-11-29T05:02:41.362Z,1029.89
2016-11-29T05:03:52.333Z,1029.93
2016-11-29T05:05:03.315Z,1029.9
2016-11-29T05:06:14.536Z,1029.85
2016-11-29T05:07:25.518Z,1029.85
2016-11-29T05:08:36.521Z,1029.81
2016-11-29T05:09:47.696Z,1029.8
2016-11-29T05:10:58.674Z,1029.84
2016-11-29T05:12:09.700Z,1029.83
2016-11-29T05:13:20.683Z,1029.84
2016-11-29T05:14:31.670Z,1029.9
2016-11-29T05:15:42.649Z,1029.84
2016-11-29T05:16:53.635Z,1029.87
2016-11-29T05:18:04.665Z,1029.88
2016-11-29T05:19:15.880Z,1029.91
2016-11-29T05:20:26.854Z,1029.93
2016-11-29T05:21:37.832Z,1029.93
2016-11-29T05:22:48.818Z,1029.89
2016-11-29T05:23:59.846Z,1029.85
2016-11-29T05:25:10.835Z,1029.85
2016-11-29T05:26:21.809Z,1029.89
2016-11-29T05:27:32.792Z,1029.87
2016-11-29T05:28:43.763Z,1029.89
2016-11-29T05:29:54.794Z,1029.96
2016-11-29T05:31:05.772Z,1029.93
2016-11-29T05:32:16.760Z,1029.89
2016-11-29T05:33:27.959Z,1029.92
2016-11-29T05:34:38.930Z,1029.91
2016-11-29T05:35:50.159Z,1029.92
2016-11-29T05:37:01.143Z,1029.93
2016-11-29T05:38:12.323Z,1029.94
2016-11-29T05:39:23.307Z,1029.94
2016-11-29T05:40:34.282Z,1029.93
2016-11-29T05:41:45.511Z,1029.94
2016-11-29T05:42:56.497Z,1029.97
2016-11-29T05:44:07.669Z,1029.93
2016-11-29T05:45:18.687Z,1029.96
2016-11-29T05:46:29.663Z,1029.95
2016-11-29T05:47:40.691Z,1029.96
2016-11-29T05:48:51.882Z,1030.02
2016-11-29T05:50:03.061Z,1030.01
2016-11-29T05:51:14.041Z,1030.02
2016-11-29T05:52:25.023Z,1030.03
2016-11-29T05:53:36.044Z,1030.03
2016-11-29T05:54:47.029Z,1030.01
2016-11-29T05:55:58.016Z,1030.03
2016-11-29T05:57:08.986Z,1030.09
2016-11-29T05:58:20.161Z,1030.06
2016-11-29T05:59:31.207Z,1030.03
2016-11-29T06:00:42.191Z,1030.01
2016-11-29T06:01:53.397Z,1030.04
2016-11-29T06:03:04.380Z,1030.07
2016-11-29T06:04:15.354Z,1030.09
2016-11-29T06:05:26.391Z,1030.1
2016-11-29T06:06:37.370Z,1030.13
2016-11-29T06:07:48.361Z,1030.13
2016-11-29T06:08:59.333Z,1030.16
2016-11-29T06:10:10.315Z,1030.13
2016-11-29T06:11:21.585Z,1030.08
2016-11-29T06:12:32.564Z,1030.14
2016-11-29T06:13:43.738Z,1030.17
2016-11-29T06:14:54.716Z,1030.22
2016-11-29T06:16:05.695Z,1030.22
2016-11-29T06:17:16.725Z,1030.29
2016-11-29T06:18:27.706Z,1030.27
2016-11-29T06:19:38.677Z,1030.32
2016-11-29T06:20:49.649Z,1030.31
2016-11-29T06:22:00.634Z,1030.34
2016-11-29T06:23:11.660Z,1030.36
2016-11-29T06:24:22.647Z,1030.35
2016-11-29T06:25:33.627Z,1030.35
2016-11-29T06:26:44.813Z,1030.37
2016-11-29T06:27:55.790Z,1030.37
2016-11-29T06:29:06.811Z,1030.32
2016-11-29T06:30:17.785Z,1030.31
2016-11-29T06:31:28.757Z,1030.33
2016-11-29T06:32:39.944Z,1030.31
2016-11-29T06:33:51.131Z,1030.32
2016-11-29T06:35:02.162Z,1030.35
2016-11-29T06:36:13.142Z,1030.37
2016-11-29T06:37:24.322Z,1030.36
2016-11-29T06:38:35.304Z,1030.37
2016-11-29T06:39:46.476Z,1030.39
2016-11-29T06:40:57.510Z,1030.36
2016-11-29T06:42:08.689Z,1030.39
2016-11-29T06:43:19.657Z,1030.4
2016-11-29T06:44:30.632Z,1030.41
2016-11-29T06:45:41.813Z,1030.39
2016-11-29T06:46:53.045Z,1030.42
2016-11-29T06:48:04.229Z,1030.45
2016-11-29T06:49:15.216Z,1030.43
2016-11-29T06:50:26.195Z,1030.42
2016-11-29T06:51:37.184Z,1030.4
2016-11-29T06:52:48.201Z,1030.42
2016-11-29T06:53:59.212Z,1030.48
2016-11-29T06:55:10.191Z,1030.49
2016-11-29T06:56:21.205Z,1030.52
2016-11-29T06:57:32.180Z,1030.46
2016-11-29T06:58:43.409Z,1030.5
2016-11-29T06:59:54.385Z,1030.56
2016-11-29T07:01:05.353Z,1030.58
2016-11-29T07:02:16.325Z,1030.57
2016-11-29T07:03:27.297Z,1030.6
2016-11-29T07:04:38.325Z,1030.61
2016-11-29T07:05:49.312Z,1030.62
2016-11-29T07:07:00.286Z,1030.67
2016-11-29T07:08:11.260Z,1030.66
2016-11-29T07:09:22.260Z,1030.69
2016-11-29T07:10:33.245Z,1030.67
2016-11-29T07:11:44.453Z,1030.74
2016-11-29T07:12:55.437Z,1030.71
2016-11-29T07:14:06.430Z,1030.75
2016-11-29T07:15:17.412Z,1030.79
2016-11-29T07:16:28.421Z,1030.79
2016-11-29T07:17:39.402Z,1030.82
2016-11-29T07:18:50.375Z,1030.86
2016-11-29T07:20:01.587Z,1030.89
2016-11-29T07:21:12.766Z,1030.86
2016-11-29T07:22:23.746Z,1030.81
2016-11-29T07:23:34.718Z,1030.8
2016-11-29T07:24:45.695Z,1030.81
2016-11-29T07:25:56.693Z,1030.84
2016-11-29T07:27:07.670Z,1030.9
2016-11-29T07:28:18.866Z,1030.9
2016-11-29T07:29:29.840Z,1030.89
2016-11-29T07:30:40.812Z,1030.88
2016-11-29T07:31:51.793Z,1030.87
2016-11-29T07:33:02.764Z,1030.87
2016-11-29T07:34:13.746Z,1030.86
2016-11-29T07:35:24.732Z,1030.89
2016-11-29T07:36:35.708Z,1030.88
2016-11-29T07:37:46.888Z,1030.87
2016-11-29T07:38:57.874Z,1030.9
2016-11-29T07:40:08.879Z,1030.97
2016-11-29T07:41:20.051Z,1030.99
2016-11-29T07:42:31.228Z,1031
2016-11-29T07:43:42.206Z,1030.98
2016-11-29T07:44:53.388Z,1030.99
2016-11-29T07:46:04.370Z,1031.04
2016-11-29T07:47:15.347Z,1031.04
2016-11-29T07:48:26.329Z,1031.02
2016-11-29T07:49:37.308Z,1031.04
2016-11-29T07:50:48.285Z,1031.04
2016-11-29T07:51:59.465Z,1031.05
2016-11-29T07:53:10.442Z,1030.99
2016-11-29T07:54:21.417Z,1031.02
2016-11-29T07:55:32.594Z,1031.07
2016-11-29T07:56:43.575Z,1031.07
2016-11-29T07:57:54.549Z,1031.09
2016-11-29T07:59:05.538Z,1031.11
2016-11-29T08:00:16.523Z,1031.11
2016-11-29T08:01:27.502Z,1031.15
2016-11-29T08:02:38.680Z,1031.15
2016-11-29T08:03:49.656Z,1031.16
2016-11-29T08:05:00.633Z,1031.16
2016-11-29T08:06:11.633Z,1031.17
2016-11-29T08:07:22.637Z,1031.2
2016-11-29T08:08:33.608Z,1031.21
2016-11-29T08:09:44.587Z,1031.23
2016-11-29T08:10:55.567Z,1031.25
2016-11-29T08:12:06.743Z,1031.27
2016-11-29T08:13:17.722Z,1031.24
2016-11-29T08:14:28.706Z,1031.24
2016-11-29T08:15:39.696Z,1031.27
2016-11-29T08:16:50.881Z,1031.27
2016-11-29T08:18:01.861Z,1031.28
2016-11-29T08:19:12.842Z,1031.33
2016-11-29T08:20:23.827Z,1031.3
2016-11-29T08:21:34.805Z,1031.33
2016-11-29T08:22:45.790Z,1031.32
2016-11-29T08:23:56.772Z,1031.38
2016-11-29T08:25:07.759Z,1031.31
2016-11-29T08:26:18.976Z,1031.36
2016-11-29T08:27:29.949Z,1031.33
2016-11-29T08:28:40.930Z,1031.33
2016-11-29T08:29:51.912Z,1031.38
2016-11-29T08:31:02.950Z,1031.39
2016-11-29T08:32:14.133Z,1031.44
2016-11-29T08:33:25.111Z,1031.42
2016-11-29T08:34:36.092Z,1031.45
2016-11-29T08:35:47.078Z,1031.46
2016-11-29T08:36:58.068Z,1031.43
2016-11-29T08:38:09.256Z,1031.48
2016-11-29T08:39:20.239Z,1031.49
2016-11-29T08:40:31.265Z,1031.46
2016-11-29T08:41:42.250Z,1031.45
2016-11-29T08:42:53.434Z,1031.41
2016-11-29T08:44:04.422Z,1031.47
2016-11-29T08:45:15.424Z,1031.45
2016-11-29T08:46:26.415Z,1031.5
2016-11-29T08:47:37.401Z,1031.48
2016-11-29T08:48:48.651Z,1031.53
2016-11-29T08:49:59.834Z,1031.54
2016-11-29T08:51:10.862Z,1031.56
2016-11-29T08:52:21.853Z,1031.58
2016-11-29T08:53:32.835Z,1031.56
2016-11-29T08:54:43.818Z,1031.54
2016-11-29T08:55:55.013Z,1031.55
2016-11-29T08:57:06.203Z,1031.5
2016-11-29T08:58:17.196Z,1031.5
2016-11-29T08:59:28.180Z,1031.49
2016-11-29T09:00:39.173Z,1031.47
2016-11-29T09:01:50.159Z,1031.49
2016-11-29T09:03:01.143Z,1031.47
2016-11-29T09:04:12.130Z,1031.44
2016-11-29T09:05:23.114Z,1031.5
2016-11-29T09:06:34.504Z,1031.56
2016-11-29T09:07:45.489Z,1031.56
2016-11-29T09:08:56.478Z,1031.55
2016-11-29T09:10:07.469Z,1031.57
2016-11-29T09:11:18.662Z,1031.57
2016-11-29T09:12:29.658Z,1031.56
2016-11-29T09:13:41.059Z,1031.59
2016-11-29T09:14:52.070Z,1031.68
2016-11-29T09:16:03.060Z,1031.62
2016-11-29T09:17:14.079Z,1031.62
2016-11-29T09:18:25.270Z,1031.67
2016-11-29T09:19:36.259Z,1031.68
2016-11-29T09:20:47.314Z,1031.71
2016-11-29T09:21:58.311Z,1031.67
2016-11-29T09:23:09.512Z,1031.71
2016-11-29T09:24:20.516Z,1031.71
2016-11-29T09:25:31.507Z,1031.74
2016-11-29T09:26:42.904Z,1031.74
2016-11-29T09:27:53.900Z,1031.74
2016-11-29T09:29:04.900Z,1031.75
2016-11-29T09:30:15.890Z,1031.79
2016-11-29T09:31:27.084Z,1031.79
2016-11-29T09:32:38.088Z,1031.76
2016-11-29T09:33:49.085Z,1031.76
2016-11-29T09:35:00.076Z,1031.77
2016-11-29T09:36:11.122Z,1031.75
2016-11-29T09:37:22.119Z,1031.77
2016-11-29T09:38:33.132Z,1031.76
2016-11-29T09:39:44.136Z,1031.77
2016-11-29T09:40:55.340Z,1031.75
2016-11-29T09:42:06.348Z,1031.79
2016-11-29T09:43:17.348Z,1031.78
2016-11-29T09:44:28.337Z,1031.84
2016-11-29T09:45:39.340Z,1031.86
2016-11-29T09:46:50.335Z,1031.83
2016-11-29T09:48:01.319Z,1031.85
2016-11-29T09:49:12.317Z,1031.86
2016-11-29T09:50:23.307Z,1031.84
2016-11-29T09:51:34.328Z,1031.82
2016-11-29T09:52:45.321Z,1031.79
2016-11-29T09:53:56.319Z,1031.8
2016-11-29T09:55:07.517Z,1031.83
2016-11-29T09:56:18.503Z,1031.81
2016-11-29T09:57:29.496Z,1031.83
2016-11-29T09:58:40.686Z,1031.77
2016-11-29T09:59:51.695Z,1031.76
2016-11-29T10:01:02.749Z,1031.79
2016-11-29T10:02:13.952Z,1031.69
2016-11-29T10:03:24.979Z,1031.71
2016-11-29T10:04:35.979Z,1031.74
2016-11-29T10:05:47.021Z,1031.73
2016-11-29T10:06:58.006Z,1031.72
2016-11-29T10:08:09.409Z,1031.69
2016-11-29T10:09:20.405Z,1031.67
2016-11-29T10:10:31.602Z,1031.71
2016-11-29T10:11:42.796Z,1031.65
2016-11-29T10:12:54.196Z,1031.66
2016-11-29T10:14:05.194Z,1031.63
2016-11-29T10:15:16.246Z,1031.6
2016-11-29T10:16:27.450Z,1031.54
2016-11-29T10:17:38.450Z,1031.55
2016-11-29T10:18:49.449Z,1031.58
2016-11-29T10:20:00.454Z,1031.59
2016-11-29T10:21:11.701Z,1031.62
2016-11-29T10:22:22.707Z,1031.58
2016-11-29T10:23:33.714Z,1031.59
2016-11-29T10:24:44.712Z,1031.59
2016-11-29T10:25:55.716Z,1031.61
2016-11-29T10:27:06.768Z,1031.56
2016-11-29T10:28:17.771Z,1031.57
2016-11-29T10:29:28.775Z,1031.56
2016-11-29T10:30:39.768Z,1031.55
2016-11-29T10:31:50.972Z,1031.52
2016-11-29T10:33:02.034Z,1031.48
2016-11-29T10:34:13.030Z,1031.5
2016-11-29T10:35:24.025Z,1031.47
2016-11-29T10:36:35.254Z,1031.48
2016-11-29T10:37:46.249Z,1031.47
2016-11-29T10:38:57.295Z,1031.44
2016-11-29T10:40:08.297Z,1031.49
2016-11-29T10:41:19.299Z,1031.42
2016-11-29T10:42:30.497Z,1031.46
2016-11-29T10:43:41.491Z,1031.44
2016-11-29T10:44:52.543Z,1031.45
2016-11-29T10:46:03.542Z,1031.43
2016-11-29T10:47:14.535Z,1031.43
2016-11-29T10:48:25.543Z,1031.4
2016-11-29T10:49:36.741Z,1031.38
2016-11-29T10:50:47.741Z,1031.4
2016-11-29T10:51:58.943Z,1031.38
2016-11-29T10:53:09.964Z,1031.35
2016-11-29T10:54:20.966Z,1031.35
2016-11-29T10:55:32.221Z,1031.37
2016-11-29T10:56:43.219Z,1031.35
2016-11-29T10:57:54.221Z,1031.38
2016-11-29T10:59:05.224Z,1031.36
2016-11-29T11:00:16.219Z,1031.34
2016-11-29T11:01:27.223Z,1031.33
2016-11-29T11:02:38.215Z,1031.26
2016-11-29T11:03:49.213Z,1031.31
2016-11-29T11:05:00.225Z,1031.27
2016-11-29T11:06:11.429Z,1031.28
2016-11-29T11:07:22.422Z,1031.26
2016-11-29T11:08:33.620Z,1031.26
2016-11-29T11:09:44.613Z,1031.24
2016-11-29T11:10:55.609Z,1031.22
2016-11-29T11:12:06.805Z,1031.18
2016-11-29T11:13:17.798Z,1031.17
2016-11-29T11:14:28.796Z,1031.11
2016-11-29T11:15:39.838Z,1031.13
2016-11-29T11:16:50.832Z,1031.17
2016-11-29T11:18:01.834Z,1031.14
2016-11-29T11:19:12.828Z,1031.14
2016-11-29T11:20:23.813Z,1031.08
2016-11-29T11:21:34.807Z,1031.13
2016-11-29T11:22:45.797Z,1031.09
2016-11-29T11:23:56.995Z,1031.08
2016-11-29T11:25:08.196Z,1031.1
2016-11-29T11:26:19.188Z,1031.08
2016-11-29T11:27:30.180Z,1031.09
2016-11-29T11:28:41.165Z,1031.07
2016-11-29T11:29:52.159Z,1031.03
2016-11-29T11:31:03.610Z,1031.02
2016-11-29T11:32:14.609Z,1031.04
2016-11-29T11:33:25.608Z,1031.02
2016-11-29T11:34:36.810Z,1031.02
2016-11-29T11:35:48.004Z,1031.01
2016-11-29T11:36:59.200Z,1031.02
2016-11-29T11:38:10.393Z,1030.99
2016-11-29T11:39:21.385Z,1030.96
2016-11-29T11:40:32.373Z,1030.95
2016-11-29T11:41:43.368Z,1030.94
2016-11-29T11:42:54.363Z,1030.95
2016-11-29T11:44:05.355Z,1030.96
2016-11-29T11:45:16.544Z,1030.94
2016-11-29T11:46:27.935Z,1030.93
2016-11-29T11:47:38.931Z,1030.94
2016-11-29T11:48:49.919Z,1030.95
2016-11-29T11:50:00.936Z,1030.93
2016-11-29T11:51:12.384Z,1030.97
2016-11-29T11:52:23.372Z,1030.94
2016-11-29T11:53:34.372Z,1030.92
2016-11-29T11:54:45.363Z,1030.9
2016-11-29T11:55:56.348Z,1030.88
2016-11-29T11:57:07.540Z,1030.93
2016-11-29T11:58:18.532Z,1030.88
2016-11-29T11:59:29.532Z,1030.88
2016-11-29T12:00:40.539Z,1030.9
2016-11-29T12:01:51.757Z,1030.92
2016-11-29T12:03:02.746Z,1030.92
2016-11-29T12:04:13.733Z,1030.86
2016-11-29T12:05:24.723Z,1030.88
2016-11-29T12:06:35.713Z,1030.8
2016-11-29T12:07:46.711Z,1030.84
2016-11-29T12:08:57.714Z,1030.81
2016-11-29T12:10:08.746Z,1030.78
2016-11-29T12:11:19.735Z,1030.77
2016-11-29T12:12:30.753Z,1030.76
2016-11-29T12:13:41.745Z,1030.75
2016-11-29T12:14:52.731Z,1030.75
2016-11-29T12:16:03.715Z,1030.7
2016-11-29T12:17:14.709Z,1030.69
2016-11-29T12:18:25.723Z,1030.72
2016-11-29T12:19:36.707Z,1030.72
2016-11-29T12:20:47.897Z,1030.68
2016-11-29T12:21:58.887Z,1030.61
2016-11-29T12:23:09.877Z,1030.64
2016-11-29T12:24:21.266Z,1030.61
2016-11-29T12:25:32.256Z,1030.61
2016-11-29T12:26:43.264Z,1030.64
2016-11-29T12:27:54.448Z,1030.6
2016-11-29T12:29:05.434Z,1030.56
2016-11-29T12:30:16.419Z,1030.53
2016-11-29T12:31:27.605Z,1030.61
2016-11-29T12:32:38.587Z,1030.6
2016-11-29T12:33:49.778Z,1030.59
2016-11-29T12:35:00.975Z,1030.59
2016-11-29T12:36:11.965Z,1030.56
2016-11-29T12:37:22.964Z,1030.53
2016-11-29T12:38:33.951Z,1030.5
2016-11-29T12:39:44.935Z,1030.52
2016-11-29T12:40:55.925Z,1030.54
2016-11-29T12:42:06.913Z,1030.5
2016-11-29T12:43:18.100Z,1030.48
2016-11-29T12:44:29.290Z,1030.52
2016-11-29T12:45:40.282Z,1030.49
2016-11-29T12:46:51.280Z,1030.52
2016-11-29T12:48:02.472Z,1030.55
2016-11-29T12:49:13.469Z,1030.54
2016-11-29T12:50:24.475Z,1030.52
2016-11-29T12:51:35.474Z,1030.53
2016-11-29T12:52:46.473Z,1030.5
2016-11-29T12:53:57.470Z,1030.47
2016-11-29T12:55:08.479Z,1030.44
2016-11-29T12:56:19.472Z,1030.43
2016-11-29T12:57:30.656Z,1030.47
2016-11-29T12:58:41.645Z,1030.42
2016-11-29T12:59:52.630Z,1030.42
2016-11-29T13:01:03.620Z,1030.44
2016-11-29T13:02:14.605Z,1030.39
2016-11-29T13:03:25.600Z,1030.39
2016-11-29T13:04:36.590Z,1030.4
2016-11-29T13:05:47.580Z,1030.33
2016-11-29T13:06:58.600Z,1030.37
2016-11-29T13:08:09.623Z,1030.38
2016-11-29T13:09:20.603Z,1030.34
2016-11-29T13:10:31.601Z,1030.33
2016-11-29T13:11:42.591Z,1030.34
2016-11-29T13:12:53.576Z,1030.34
2016-11-29T13:14:04.563Z,1030.29
2016-11-29T13:15:15.556Z,1030.26
2016-11-29T13:16:26.943Z,1030.23
2016-11-29T13:17:37.936Z,1030.22
2016-11-29T13:18:48.922Z,1030.21
2016-11-29T13:19:59.911Z,1030.23
2016-11-29T13:21:10.945Z,1030.2
2016-11-29T13:22:21.955Z,1030.18
2016-11-29T13:23:32.938Z,1030.19
2016-11-29T13:24:44.121Z,1030.15
2016-11-29T13:25:55.508Z,1030.16
2016-11-29T13:27:06.492Z,1030.2
2016-11-29T13:28:17.480Z,1030.15
2016-11-29T13:29:28.468Z,1030.16
2016-11-29T13:30:39.454Z,1030.17
2016-11-29T13:31:50.646Z,1030.15
2016-11-29T13:33:01.831Z,1030.16
2016-11-29T13:34:12.820Z,1030.13
2016-11-29T13:35:23.808Z,1030.15
2016-11-29T13:36:35.197Z,1030.13
2016-11-29T13:37:46.187Z,1030.12
2016-11-29T13:38:57.375Z,1030.2
2016-11-29T13:40:08.568Z,1030.17
2016-11-29T13:41:19.551Z,1030.2
2016-11-29T13:42:30.536Z,1030.16
2016-11-29T13:43:41.518Z,1030.19
2016-11-29T13:44:52.497Z,1030.18
2016-11-29T13:46:03.478Z,1030.19
2016-11-29T13:47:14.459Z,1030.14
2016-11-29T13:48:25.650Z,1030.14
2016-11-29T13:49:36.641Z,1030.21
2016-11-29T13:50:47.628Z,1030.23
2016-11-29T13:51:58.615Z,1030.2
2016-11-29T13:53:09.807Z,1030.21
2016-11-29T13:54:20.795Z,1030.27
2016-11-29T13:55:31.773Z,1030.23
2016-11-29T13:56:42.755Z,1030.22
2016-11-29T13:57:53.736Z,1030.24
2016-11-29T13:59:04.729Z,1030.23
2016-11-29T14:00:15.720Z,1030.23
2016-11-29T14:01:26.906Z,1030.21
2016-11-29T14:02:37.894Z,1030.2
2016-11-29T14:03:48.873Z,1030.17
2016-11-29T14:05:00.049Z,1030.19
2016-11-29T14:06:11.082Z,1030.17
2016-11-29T14:07:22.072Z,1030.1
2016-11-29T14:08:33.060Z,1030.12
2016-11-29T14:09:44.058Z,1030.14
2016-11-29T14:10:55.045Z,1030.09
2016-11-29T14:12:06.039Z,1030.13
2016-11-29T14:13:17.029Z,1030.07
2016-11-29T14:14:28.214Z,1030.06
2016-11-29T14:15:39.255Z,1030.05
2016-11-29T14:16:50.237Z,1030.08
2016-11-29T14:18:01.219Z,1030.04
2016-11-29T14:19:12.204Z,1030.09
2016-11-29T14:20:23.243Z,1030.04
2016-11-29T14:21:34.235Z,1030.04